createdAt,value
2023-03-06T00:01:29.896Z,-6.43
2023-03-06T00:06:33.952Z,-6.31
2023-03-06T00:11:37.636Z,-6.16
2023-03-06T00:16:41.192Z,-6.03
2023-03-06T00:21:44.328Z,-5.99
2023-03-06T00:26:48.743Z,-6.05
2023-03-06T00:31:52.416Z,-6.07
2023-03-06T00:36:55.436Z,-6.17
2023-03-06T00:41:58.042Z,-6.27
2023-03-06T00:47:01.607Z,-6.38
2023-03-06T00:52:05.225Z,-6.41
2023-03-06T00:57:08.019Z,-6.37
2023-03-06T01:02:11.133Z,-6.36
2023-03-06T01:07:15.659Z,-6.38
2023-03-06T01:12:18.929Z,-6.40
2023-03-06T01:17:21.727Z,-6.41
2023-03-06T01:22:25.476Z,-6.42
2023-03-06T01:27:28.864Z,-6.45
2023-03-06T01:32:33.240Z,-6.49
2023-03-06T01:37:37.532Z,-6.49
2023-03-06T01:42:41.737Z,-6.48
2023-03-06T01:47:45.212Z,-6.51
2023-03-06T01:52:57.688Z,-6.59
2023-03-06T01:58:06.260Z,-6.70
2023-03-06T02:03:10.767Z,-6.82
2023-03-06T02:08:18.410Z,-6.92
2023-03-06T02:13:21.513Z,-7.02
2023-03-06T02:18:25.657Z,-7.07
2023-03-06T02:23:39.144Z,-7.09
2023-03-06T02:28:41.573Z,-7.09
2023-03-06T02:33:43.891Z,-7.06
2023-03-06T02:38:49.995Z,-7.08
2023-03-06T02:43:53.303Z,-7.15
2023-03-06T02:48:57.738Z,-7.32
2023-03-06T02:54:00.135Z,-7.48
2023-03-06T02:59:02.561Z,-7.58
2023-03-06T03:04:05.891Z,-7.62
2023-03-06T03:09:10.123Z,-7.68
2023-03-06T03:14:12.934Z,-7.74
2023-03-06T03:19:15.731Z,-7.79
2023-03-06T03:24:19.281Z,-7.83
2023-03-06T03:29:21.628Z,-7.81
2023-03-06T03:34:23.743Z,-7.78
2023-03-06T03:39:25.785Z,-7.76
2023-03-06T03:44:27.602Z,-7.71
2023-03-06T03:49:29.375Z,-7.64
2023-03-06T03:54:31.124Z,-7.50
2023-03-06T03:59:36.311Z,-7.30
2023-03-06T04:04:39.771Z,-7.11
2023-03-06T04:09:43.394Z,-6.90
2023-03-06T04:14:46.567Z,-6.66
2023-03-06T04:19:50.020Z,-6.44
2023-03-06T04:24:53.196Z,-6.25
2023-03-06T04:29:56.566Z,-6.06
2023-03-06T04:35:00.539Z,-5.88
2023-03-06T04:40:04.550Z,-5.72
2023-03-06T04:45:08.492Z,-5.59
2023-03-06T04:50:11.943Z,-5.45
2023-03-06T04:55:17.705Z,-5.27
2023-03-06T05:00:23.853Z,-5.11
2023-03-06T05:05:28.246Z,-4.97
2023-03-06T05:10:30.970Z,-4.84
2023-03-06T05:15:33.641Z,-4.72
2023-03-06T05:20:37.364Z,-4.56
2023-03-06T05:25:41.136Z,-4.41
2023-03-06T05:30:45.027Z,-4.28
2023-03-06T05:35:49.073Z,-4.20
2023-03-06T05:40:51.519Z,-4.16
2023-03-06T05:46:05.503Z,-4.10
2023-03-06T05:51:07.681Z,-3.96
2023-03-06T05:56:10.377Z,-3.85
2023-03-06T06:01:17.164Z,-3.74
2023-03-06T06:06:20.441Z,-3.60
2023-03-06T06:11:24.559Z,-3.46
2023-03-06T06:16:27.876Z,-3.33
2023-03-06T06:21:31.655Z,-3.21
2023-03-06T06:26:35.826Z,-3.09
2023-03-06T06:31:39.679Z,-2.92
2023-03-06T06:36:43.257Z,-2.72
2023-03-06T06:41:59.778Z,-2.55
2023-03-06T06:47:26.102Z,-2.36
2023-03-06T06:52:29.847Z,-2.12
2023-03-06T06:57:33.852Z,-1.86
2023-03-06T07:02:36.794Z,-1.66
2023-03-06T07:07:41.307Z,-1.53
2023-03-06T07:12:44.704Z,-1.33
2023-03-06T07:17:50.189Z,-1.18
2023-03-06T07:22:54.681Z,-1.03
2023-03-06T07:27:58.534Z,-0.81
2023-03-06T07:33:01.922Z,-0.66
2023-03-06T07:38:04.602Z,-0.68
2023-03-06T07:43:18.754Z,-0.64
2023-03-06T07:48:23.558Z,-0.53
2023-03-06T07:53:27.825Z,-0.35
2023-03-06T07:58:32.821Z,-0.14
2023-03-06T08:03:37.077Z,-0.12
2023-03-06T08:08:41.724Z,-0.15
2023-03-06T08:13:45.892Z,-0.13
2023-03-06T08:18:49.587Z,-0.10
2023-03-06T08:23:53.035Z,0.04
2023-03-06T08:28:59.798Z,0.17
2023-03-06T08:34:05.549Z,0.24
2023-03-06T08:39:09.120Z,0.20
2023-03-06T08:44:13.360Z,0.16
2023-03-06T08:49:16.651Z,0.16
2023-03-06T08:54:20.378Z,0.22
2023-03-06T08:59:24.784Z,0.27
2023-03-06T09:04:31.206Z,0.32
2023-03-06T09:09:33.391Z,0.32
2023-03-06T09:14:36.156Z,0.40
2023-03-06T09:19:39.458Z,0.55
2023-03-06T09:24:42.612Z,0.64
2023-03-06T09:29:45.871Z,0.70
2023-03-06T09:34:49.273Z,0.74
2023-03-06T09:39:51.805Z,0.92
2023-03-06T09:44:59.501Z,0.96
2023-03-06T09:50:14.386Z,1.04
2023-03-06T09:55:21.680Z,1.17
2023-03-06T10:00:38.532Z,1.48
2023-03-06T10:06:09.724Z,1.72
2023-03-06T10:11:17.540Z,1.98
2023-03-06T10:16:24.496Z,2.16
2023-03-06T10:21:34.262Z,2.30
2023-03-06T10:27:10.855Z,2.44
2023-03-06T10:32:49.314Z,2.47
2023-03-06T10:38:01.849Z,2.62
2023-03-06T10:43:14.077Z,2.82
2023-03-06T10:48:22.891Z,3.11
2023-03-06T10:53:30.039Z,3.33
2023-03-06T10:58:32.938Z,3.53
2023-03-06T11:03:37.052Z,3.90
2023-03-06T11:08:42.789Z,4.23
2023-03-06T11:13:57.041Z,4.39
2023-03-06T11:19:04.412Z,4.65
2023-03-06T11:24:19.518Z,4.74
2023-03-06T11:29:43.530Z,4.59
2023-03-06T11:35:12.907Z,4.58
2023-03-06T11:40:31.587Z,4.37
2023-03-06T11:45:44.167Z,4.21
2023-03-06T11:50:53.474Z,4.06
2023-03-06T11:56:23.282Z,4.08
2023-03-06T12:01:45.112Z,4.18
2023-03-06T12:06:55.148Z,4.18
2023-03-06T12:12:03.787Z,4.39
2023-03-06T12:17:27.378Z,4.86
2023-03-06T12:22:57.611Z,5.21
2023-03-06T12:28:19.895Z,5.46
2023-03-06T12:33:34.270Z,5.33
2023-03-06T12:38:58.031Z,5.34
2023-03-06T12:44:06.354Z,5.25
2023-03-06T12:49:31.918Z,5.18
2023-03-06T12:54:40.133Z,5.20
2023-03-06T12:59:47.388Z,5.21
2023-03-06T13:05:08.961Z,5.10
2023-03-06T13:10:25.833Z,5.00
2023-03-06T13:15:45.309Z,5.05
2023-03-06T13:20:55.452Z,5.03
2023-03-06T13:26:08.234Z,4.99
2023-03-06T13:31:27.689Z,4.94
2023-03-06T13:36:39.839Z,4.89
2023-03-06T13:42:00.593Z,4.81
2023-03-06T13:47:20.955Z,4.74
2023-03-06T13:53:11.715Z,4.68
2023-03-06T13:58:37.403Z,4.38
2023-03-06T14:03:48.863Z,4.11
2023-03-06T14:08:52.985Z,4.01
2023-03-06T14:13:59.198Z,3.88
2023-03-06T14:19:03.329Z,3.71
2023-03-06T14:24:07.226Z,3.48
2023-03-06T14:29:25.901Z,3.29
2023-03-06T14:34:33.258Z,3.08
2023-03-06T14:39:42.687Z,2.93
2023-03-06T14:44:47.535Z,2.86
2023-03-06T14:50:26.999Z,2.82
2023-03-06T14:55:32.486Z,2.71
2023-03-06T15:00:41.358Z,2.59
2023-03-06T15:05:47.996Z,2.55
2023-03-06T15:11:02.762Z,2.50
2023-03-06T15:16:28.998Z,2.42
2023-03-06T15:21:38.999Z,2.37
2023-03-06T15:26:40.997Z,2.29
2023-03-06T15:31:48.335Z,2.20
2023-03-06T15:36:56.476Z,2.10
2023-03-06T15:42:00.085Z,2.08
2023-03-06T15:47:08.863Z,2.01
2023-03-06T15:52:13.663Z,1.96
2023-03-06T15:57:24.458Z,1.93
2023-03-06T16:02:30.352Z,1.87
2023-03-06T16:07:35.524Z,1.91
2023-03-06T16:12:47.440Z,1.95
2023-03-06T16:17:57.961Z,1.91
2023-03-06T16:23:01.375Z,1.82
2023-03-06T16:28:11.741Z,1.73
2023-03-06T16:33:18.438Z,1.68
2023-03-06T16:38:27.884Z,1.66
2023-03-06T16:43:40.784Z,1.58
2023-03-06T16:48:49.180Z,1.57
2023-03-06T16:53:55.795Z,1.58
2023-03-06T16:58:59.566Z,1.59
2023-03-06T17:04:03.545Z,1.52
2023-03-06T17:09:07.655Z,1.48
2023-03-06T17:14:12.070Z,1.51
2023-03-06T17:19:15.304Z,1.60
2023-03-06T17:24:20.222Z,1.58
2023-03-06T17:29:23.624Z,1.56
2023-03-06T17:34:27.870Z,1.55
2023-03-06T17:39:39.401Z,1.60
2023-03-06T17:44:42.213Z,1.61
2023-03-06T17:49:46.635Z,1.58
2023-03-06T17:54:50.418Z,1.56
2023-03-06T17:59:53.826Z,1.55
2023-03-06T18:04:57.803Z,1.56
2023-03-06T18:10:02.157Z,1.56
2023-03-06T18:15:05.805Z,1.53
2023-03-06T18:20:10.183Z,1.45
2023-03-06T18:25:13.995Z,1.45
2023-03-06T18:30:18.324Z,1.49
2023-03-06T18:35:21.598Z,1.49
2023-03-06T18:40:25.748Z,1.43
2023-03-06T18:45:28.608Z,1.36
2023-03-06T18:50:32.120Z,1.35
2023-03-06T18:55:34.903Z,1.37
2023-03-06T19:00:38.915Z,1.36
2023-03-06T19:05:43.800Z,1.32
2023-03-06T19:10:54.690Z,1.26
2023-03-06T19:15:58.806Z,1.27
2023-03-06T19:21:13.254Z,1.28
2023-03-06T19:26:18.742Z,1.20
2023-03-06T19:31:25.375Z,1.02
2023-03-06T19:36:34.152Z,0.85
2023-03-06T19:41:38.128Z,0.78
2023-03-06T19:46:41.673Z,0.75
2023-03-06T19:51:45.724Z,0.66
2023-03-06T19:56:49.959Z,0.56
2023-03-06T20:01:58.052Z,0.49
2023-03-06T20:07:02.040Z,0.49
2023-03-06T20:12:09.599Z,0.53
2023-03-06T20:17:12.416Z,0.52
2023-03-06T20:22:15.617Z,0.45
2023-03-06T20:27:19.175Z,0.41
2023-03-06T20:32:22.752Z,0.45
2023-03-06T20:37:42.763Z,0.45
2023-03-06T20:42:46.732Z,0.40
2023-03-06T20:47:50.336Z,0.33
2023-03-06T20:52:54.636Z,0.38
2023-03-06T20:58:00.837Z,0.44
2023-03-06T21:03:04.139Z,0.40
2023-03-06T21:08:08.004Z,0.36
2023-03-06T21:13:11.876Z,0.34
2023-03-06T21:18:15.961Z,0.34
2023-03-06T21:23:19.292Z,0.34
2023-03-06T21:28:22.321Z,0.30
2023-03-06T21:33:26.378Z,0.24
2023-03-06T21:38:29.590Z,0.23
2023-03-06T21:43:31.832Z,0.27
2023-03-06T21:48:36.127Z,0.22
2023-03-06T21:53:43.284Z,0.14
2023-03-06T21:58:46.850Z,0.12
2023-03-06T22:03:50.601Z,0.13
2023-03-06T22:08:55.763Z,0.12
2023-03-06T22:14:00.306Z,0.10
2023-03-06T22:19:04.000Z,0.08
2023-03-06T22:24:08.872Z,0.03
2023-03-06T22:29:11.197Z,-0.02
2023-03-06T22:34:14.609Z,-0.02
2023-03-06T22:39:19.378Z,-0.01
2023-03-06T22:44:22.628Z,-0.05
2023-03-06T22:49:25.871Z,-0.14
2023-03-06T22:54:29.675Z,-0.22
2023-03-06T22:59:32.864Z,-0.21
2023-03-06T23:04:36.654Z,-0.15
2023-03-06T23:09:40.053Z,-0.15
2023-03-06T23:14:49.966Z,-0.20
2023-03-06T23:19:54.287Z,-0.26
2023-03-06T23:24:56.289Z,-0.26
2023-03-06T23:29:59.371Z,-0.30
2023-03-06T23:35:01.852Z,-0.35
2023-03-06T23:40:07.968Z,-0.42
2023-03-06T23:45:11.435Z,-0.47
2023-03-06T23:50:15.804Z,-0.45
2023-03-06T23:55:18.124Z,-0.45
